Flight Track Log - Related Links

Times and Time Zones

All times are in EDT time to prevent confusion due to time zone crossing. See the DAL1283 flight status page for this flight to view local times or setup timezone preferences in your user account.

Time Position Orientation Groundspeed Altitude Reporting Facility
EDT Latitude Longitude Course Direction KTS MPH feet Rate Location/Type
Wed 08:49:09 PM 44.8833 -93.3000 251° West 205 236 3,400  Level Minneapolis TRACON
Wed 08:50:13 PM 44.8625 -93.3714 248° West 218 251 6,600 2,524 Climbing Minneapolis Center
Wed 08:51:00 PM 44.4194 -93.3971 208° Southwest  Level Estimated
Wed 08:51:15 PM 44.7933 -93.4117 202° Southwest 278 320 8,700  Level Minneapolis Center
Wed 08:52:00 PM 44.3037 -93.4405 205° Southwest  Level Estimated
Wed 08:52:17 PM 44.7200 -93.4547 203° Southwest 291 335 10,200  Level Minneapolis Center
Wed 08:53:00 PM 44.1880 -93.4837 209° Southwest  Level Estimated
Wed 08:53:31 PM 44.6144 -93.5144 202° Southwest 363 418 12,300  Level Minneapolis Center
Wed 08:54:00 PM 44.1484 -93.6413 251° West  Level FlightAware Approximate
Wed 08:54:34 PM 44.4958 -93.5825 202° Southwest 388 447 15,400  Level Minneapolis Center
Wed 08:55:36 PM 44.3942 -93.6442 203° Southwest 403 464 17,700 1,984 Climbing Minneapolis Center
Wed 08:56:38 PM 44.2969 -93.7250 211° Southwest 407 468 19,500 2,064 Climbing Minneapolis Center
Wed 08:57:41 PM 44.1725 -93.8239 210° Southwest 427 491 22,000 1,968 Climbing Minneapolis Center
Wed 08:58:43 PM 44.0661 -93.9086 210° Southwest 437 503 23,600 1,597 Climbing Minneapolis Center
Wed 08:59:45 PM 43.9569 -93.9950 210° Southwest 449 517 25,300 1,500 Climbing Minneapolis Center
Wed 09:00:47 PM 43.8467 -94.0811 209° Southwest 453 521 26,700 1,248 Climbing Minneapolis Center
Wed 09:01:50 PM 43.7225 -94.1422 200° South 474 545 27,900 1,152 Climbing Minneapolis Center
Wed 09:02:52 PM 43.5678 -94.2150 199° South 486 559 29,100 1,258 Climbing Minneapolis Center
Wed 09:03:54 PM 43.4433 -94.2725 199° South 490 564 30,500 1,258 Climbing Minneapolis Center
Wed 09:04:56 PM 43.3150 -94.3325 199° South 488 562 31,700 1,113 Climbing Minneapolis Center
Wed 09:05:58 PM 43.1869 -94.3925 199° South 487 560 32,800 1,065 Climbing Minneapolis Center
Wed 09:07:00 PM 43.0589 -94.4519 199° South 486 559 33,900 927 Climbing Minneapolis Center
Wed 09:08:01 PM 42.9539 -94.5008 199° South 482 555 34,700 968 Climbing Minneapolis Center
Wed 09:09:04 PM 42.7761 -94.5822 199° South 486 559 35,900 624 Climbing Minneapolis Center
Wed 09:10:06 PM 42.6550 -94.6364 198° South 480 552 36,000 48 Climbing Minneapolis Center
Wed 09:11:08 PM 42.5286 -94.6939 199° South 478 550 36,000  Level Minneapolis Center
Wed 09:12:10 PM 42.4269 -94.7403 199° South 480 552 36,000  Level Minneapolis Center
Wed 09:13:12 PM 42.2747 -94.8078 198° South 479 551 36,000  Level Minneapolis Center
Wed 09:14:27 PM 42.1008 -94.8894 199° South 473 544 36,000  Level Minneapolis Center
Wed 09:15:29 PM 41.9689 -94.9325 194° South 488 562 36,000  Level Minneapolis Center
Wed 09:16:31 PM 41.8328 -94.9600 189° South 491 565 36,000  Level Minneapolis Center
Wed 09:17:33 PM 41.7000 -94.9886 189° South 489 563 36,000  Level Minneapolis Center
Wed 09:18:35 PM 41.5658 -95.0178 189° South 486 559 36,000  Level Minneapolis Center
Wed 09:19:37 PM 41.4328 -95.0461 189° South 485 558 36,000  Level Minneapolis Center
Wed 09:20:39 PM 41.2997 -95.0736 189° South 482 555 36,000  Level Minneapolis Center
Wed 09:21:41 PM 41.1672 -95.1022 189° South 480 552 36,000  Level Minneapolis Center
Wed 09:22:43 PM 41.0061 -95.1383 190° South 484 557 36,000  Level Minneapolis Center
Wed 09:23:45 PM 40.8981 -95.1625 190° South 485 558 36,000  Level Minneapolis Center
Wed 09:24:47 PM 40.7361 -95.1994 190° South 488 562 36,000  Level Minneapolis Center
Wed 09:25:49 PM 40.6036 -95.2281 189° South 485 558 36,000  Level Minneapolis Center
Wed 09:26:51 PM 40.4697 -95.2586 190° South 484 557 36,000  Level Minneapolis Center
Wed 09:27:53 PM 40.3375 -95.2881 190° South 483 556 36,000  Level Minneapolis Center
Wed 09:28:55 PM 40.1906 -95.3575 200° South 473 544 36,000  Level Minneapolis Center
Wed 09:29:57 PM 40.0683 -95.4225 202° Southwest 471 542 36,000  Level Minneapolis Center
Wed 09:30:59 PM 39.9458 -95.4828 201° Southwest 471 542 36,000  Level Minneapolis Center
Wed 09:32:01 PM 39.8247 -95.5433 201° Southwest 468 539 36,000  Level Minneapolis Center
Wed 09:33:03 PM 39.7028 -95.6033 201° Southwest 468 539 36,000  Level Minneapolis Center
Wed 09:34:16 PM 39.5803 -95.6633 201° Southwest 468 539 36,000  Level Minneapolis Center
Wed 09:35:18 PM 39.4342 -95.7344 201° Southwest 467 537 36,000  Level Minneapolis Center
Wed 09:36:20 PM 39.2881 -95.8058 201° Southwest 467 537 36,000  Level Minneapolis Center
Wed 09:37:22 PM 39.1661 -95.8658 201° Southwest 468 539 36,000  Level Minneapolis Center
Wed 09:38:38 PM 39.0111 -95.9383 200° South 471 542 36,000  Level Kansas City Center
Wed 09:39:39 PM 38.8967 -95.9947 201° Southwest 466 536 36,000  Level Kansas City Center
Wed 09:40:40 PM 38.7803 -96.0497 200° South 465 535 36,000  Level Kansas City Center
Wed 09:41:43 PM 38.6469 -96.1147 201° Southwest 461 531 36,000  Level Kansas City Center
Wed 09:42:44 PM 38.5294 -96.1692 200° South 465 535 36,000  Level Kansas City Center
Wed 09:43:47 PM 38.3933 -96.2347 201° Southwest 467 537 36,000  Level Kansas City Center
Wed 09:44:48 PM 38.2767 -96.2892 200° South 468 539 36,000  Level Kansas City Center
Wed 09:45:49 PM 38.1583 -96.3447 200° South 467 537 36,000  Level Kansas City Center
Wed 09:46:50 PM 38.0372 -96.4022 201° Southwest 461 531 36,000  Level Kansas City Center
Wed 09:47:51 PM 37.9156 -96.4578 200° South 463 533 36,000  Level Kansas City Center
Wed 09:48:54 PM 37.7697 -96.5253 200° South 463 533 36,000  Level Kansas City Center
Wed 09:49:54 PM 37.6497 -96.5811 200° South 459 528 36,000  Level Kansas City Center
Wed 09:50:58 PM 37.5306 -96.6364 200° South 455 524 36,000  Level Kansas City Center
Wed 09:51:59 PM 37.4114 -96.6911 200° South 454 522 36,000 -198 Level Kansas City Center
Wed 09:52:59 PM 37.2928 -96.7453 200° South 453 521 35,600 -496 Descending Kansas City Center
Wed 09:54:00 PM 37.1717 -96.8003 200° South 457 526 35,000 -384 Descending Kansas City Center
Wed 09:55:04 PM 37.0494 -96.8556 200° South 461 531 34,800 -532 Descending Kansas City Center
Wed 09:56:04 PM 36.9278 -96.9117 200° South 464 534 33,900 -984 Descending Kansas City Center
Wed 09:57:06 PM 36.7967 -96.9725 200° South 463 533 32,800 -927 Descending Kansas City Center
Wed 09:58:07 PM 36.6725 -97.0275 200° South 470 541 32,000 -393 Descending Kansas City Center
Wed 09:59:08 PM 36.5514 -97.0825 200° South 471 542 32,000  Level Kansas City Center
Wed 10:00:09 PM 36.4039 -97.1478 200° South 470 541 32,000  Level Kansas City Center
Wed 10:01:11 PM 36.2808 -97.2036 200° South 471 542 32,000  Level Kansas City Center
Wed 10:02:12 PM 36.1575 -97.2592 200° South 472 543 32,000  Level Kansas City Center
Wed 10:03:15 PM 36.0331 -97.3136 199° South 474 545 32,000  Level Kansas City Center
Wed 10:04:17 PM 35.9092 -97.3678 200° South 474 545 32,000  Level Kansas City Center
Wed 10:05:17 PM 35.7856 -97.4222 200° South 473 544 32,000  Level Kansas City Center
Wed 10:06:18 PM 35.6614 -97.4775 200° South 477 549 32,000 49 Level Kansas City Center
Wed 10:07:19 PM 35.5122 -97.5458 200° South 482 555 32,100  Climbing Kansas City Center
Wed 10:08:21 PM 35.3839 -97.5919 196° South 488 562 32,000 -49 Descending Kansas City Center
Wed 10:09:22 PM 35.2506 -97.5978 182° South 487 560 32,000 -387 Level Kansas City Center
Wed 10:10:25 PM 35.1189 -97.5753 172° South 482 555 31,200 -878 Descending Kansas City Center
Wed 10:11:25 PM 34.9847 -97.5564 173° South 485 558 30,200 -1,024 Descending Kansas City Center
Wed 10:12:28 PM 34.8511 -97.5369 173° South 486 559 29,100 -1,306 Descending Kansas City Center
Wed 10:13:29 PM 34.6900 -97.5147 174° South 486 559 27,500 -1,463 Descending Kansas City Center
Wed 10:14:31 PM 34.5539 -97.4958 173° South 491 565 26,100 -1,328 Descending Kansas City Center
Wed 10:15:31 PM 34.4175 -97.4764 173° South 493 567 24,800 -933 Descending Kansas City Center
Wed 10:16:46 PM 34.2567 -97.4889 184° South 487 560 24,000 -356 Descending Fort Worth Center
Wed 10:17:46 PM 34.1358 -97.5464 202° Southwest 466 536 24,000 -500 Level Fort Worth Center
Wed 10:18:46 PM 34.0231 -97.5989 201° Southwest 424 488 23,000 -950 Descending Fort Worth Center
Wed 10:19:46 PM 33.9206 -97.6136 187° South 388 447 22,100 -950 Descending Fort Worth Center
Wed 10:20:46 PM 33.8289 -97.6186 183° South 371 427 21,100 -1,050 Descending Fort Worth Center
Wed 10:21:46 PM 33.7203 -97.6258 183° South 376 433 20,000 -1,700 Descending Fort Worth Center
Wed 10:22:46 PM 33.5992 -97.5981 169° South 394 453 17,700 -2,650 Descending Fort Worth Center
Wed 10:23:46 PM 33.4908 -97.5728 169° South 405 466 14,700 -2,550 Descending Fort Worth Center
Wed 10:24:46 PM 33.3844 -97.5428 167° South 400 460 12,600 -1,866 Descending Fort Worth Center
Wed 10:25:45 PM 33.2833 -97.5167 168° South 325 374 11,000 -807 Descending Dallas / Fort Worth TRACON
Wed 10:26:45 PM 33.2167 -97.4500 140° Southeast 315 362 11,000  Level Dallas / Fort Worth TRACON
Wed 10:27:45 PM 33.1667 -97.3833 132° Southeast 314 361 11,000  Level Dallas / Fort Worth TRACON
Wed 10:28:40 PM 33.1000 -97.3167 140° Southeast 313 360 11,000  Level Dallas / Fort Worth TRACON
Wed 10:29:39 PM 33.0500 -97.2333 126° Southeast 316 364 11,000 -150 Level Dallas / Fort Worth TRACON
Wed 10:30:40 PM 32.9833 -97.1667 140° Southeast 276 318 10,700 -843 Descending Dallas / Fort Worth TRACON
Wed 10:31:40 PM 32.9000 -97.1667 180° South 266 306 9,300 -1,650 Descending Dallas / Fort Worth TRACON
Wed 10:32:40 PM 32.8333 -97.1667 180° South 248 285 7,400 -1,905 Descending Dallas / Fort Worth TRACON
Wed 10:33:46 PM 32.7767 -97.1711 184° South 251 289 5,300 -1,857 Descending Fort Worth Center
Wed 10:34:46 PM 32.7286 -97.1269 142° Southeast 206 237 3,500 -1,350 Descending Fort Worth Center
Wed 10:35:46 PM 32.7681 -97.0725 49° Northeast 119 137 2,600 -796 Descending Fort Worth Center
Wed 10:36:39 PM 32.8000 -97.0500 31° Northeast 134 154 2,000 -690 Descending Dallas / Fort Worth TRACON
Wed 10:37:39 PM 32.8333 -97.0500 360° North 138 159 1,300 -700 Descending Dallas / Fort Worth TRACON

Login

Don't have an account? Register now (free) for customized features, flight alerts, and more!